sensor_id;sensor_type;location;lat;lon;timestamp;temperature;humidity
5870;DHT22;2961;47.702;9.410;2023-03-01T00:00:02;0.40;99.90
5870;DHT22;2961;47.702;9.410;2023-03-01T00:02:29;0.40;99.90
5870;DHT22;2961;47.702;9.410;2023-03-01T00:04:57;0.40;99.90
5870;DHT22;2961;47.702;9.410;2023-03-01T00:07:24;0.40;99.90
5870;DHT22;2961;47.702;9.410;2023-03-01T00:09:51;0.50;99.90
5870;DHT22;2961;47.702;9.410;2023-03-01T00:12:18;0.50;99.90
5870;DHT22;2961;47.702;9.410;2023-03-01T00:14:44;0.50;99.90
5870;DHT22;2961;47.702;9.410;2023-03-01T00:17:11;0.50;99.90
5870;DHT22;2961;47.702;9.410;2023-03-01T00:19:38;0.60;99.90
5870;DHT22;2961;47.702;9.410;2023-03-01T00:22:06;0.60;99.90
5870;DHT22;2961;47.702;9.410;2023-03-01T00:24:33;0.60;99.90
5870;DHT22;2961;47.702;9.410;2023-03-01T00:27:00;0.60;99.90
5870;DHT22;2961;47.702;9.410;2023-03-01T00:29:27;0.60;99.90
5870;DHT22;2961;47.702;9.410;2023-03-01T00:31:54;0.60;99.90
5870;DHT22;2961;47.702;9.410;2023-03-01T00:34:20;0.60;99.90
5870;DHT22;2961;47.702;9.410;2023-03-01T00:36:47;0.60;99.90
5870;DHT22;2961;47.702;9.410;2023-03-01T00:39:15;0.60;99.90
5870;DHT22;2961;47.702;9.410;2023-03-01T00:41:42;0.70;99.90
5870;DHT22;2961;47.702;9.410;2023-03-01T00:44:10;0.70;99.90
5870;DHT22;2961;47.702;9.410;2023-03-01T00:46:37;0.70;99.90
5870;DHT22;2961;47.702;9.410;2023-03-01T00:49:04;0.60;99.90
5870;DHT22;2961;47.702;9.410;2023-03-01T00:51:31;0.60;99.90
5870;DHT22;2961;47.702;9.410;2023-03-01T00:54:00;0.60;99.90
5870;DHT22;2961;47.702;9.410;2023-03-01T00:56:29;0.60;99.90
5870;DHT22;2961;47.702;9.410;2023-03-01T00:58:56;0.70;99.90
5870;DHT22;2961;47.702;9.410;2023-03-01T01:01:24;0.70;99.90
5870;DHT22;2961;47.702;9.410;2023-03-01T01:03:54;0.70;99.90
5870;DHT22;2961;47.702;9.410;2023-03-01T01:06:23;0.70;99.90
5870;DHT22;2961;47.702;9.410;2023-03-01T01:08:51;0.70;99.90
5870;DHT22;2961;47.702;9.410;2023-03-01T01:11:19;0.70;99.90
5870;DHT22;2961;47.702;9.410;2023-03-01T01:13:48;0.70;99.90
5870;DHT22;2961;47.702;9.410;2023-03-01T01:16:16;0.70;99.90
5870;DHT22;2961;47.702;9.410;2023-03-01T01:18:44;0.70;99.90
5870;DHT22;2961;47.702;9.410;2023-03-01T01:21:13;0.70;99.90
5870;DHT22;2961;47.702;9.410;2023-03-01T01:23:41;0.70;99.90
5870;DHT22;2961;47.702;9.410;2023-03-01T01:26:10;0.70;99.90
5870;DHT22;2961;47.702;9.410;2023-03-01T01:28:37;0.80;99.90
5870;DHT22;2961;47.702;9.410;2023-03-01T01:31:05;0.80;99.90
5870;DHT22;2961;47.702;9.410;2023-03-01T01:33:33;0.80;99.90
5870;DHT22;2961;47.702;9.410;2023-03-01T01:35:59;0.70;99.90
5870;DHT22;2961;47.702;9.410;2023-03-01T01:38:26;0.70;99.90
5870;DHT22;2961;47.702;9.410;2023-03-01T01:40:53;0.80;99.90
5870;DHT22;2961;47.702;9.410;2023-03-01T01:43:22;0.80;99.90
5870;DHT22;2961;47.702;9.410;2023-03-01T01:45:49;0.80;99.90
5870;DHT22;2961;47.702;9.410;2023-03-01T01:48:20;0.80;99.90
5870;DHT22;2961;47.702;9.410;2023-03-01T01:50:53;0.80;99.90
5870;DHT22;2961;47.702;9.410;2023-03-01T01:53:22;0.80;99.90
5870;DHT22;2961;47.702;9.410;2023-03-01T01:55:53;0.80;99.90
5870;DHT22;2961;47.702;9.410;2023-03-01T01:58:25;0.80;99.90
5870;DHT22;2961;47.702;9.410;2023-03-01T02:00:53;0.70;99.90
5870;DHT22;2961;47.702;9.410;2023-03-01T02:03:24;0.70;99.90
5870;DHT22;2961;47.702;9.410;2023-03-01T02:05:57;0.70;99.90
5870;DHT22;2961;47.702;9.410;2023-03-01T02:08:29;0.70;99.90
5870;DHT22;2961;47.702;9.410;2023-03-01T02:10:58;0.80;99.90
5870;DHT22;2961;47.702;9.410;2023-03-01T02:13:26;0.80;99.90
5870;DHT22;2961;47.702;9.410;2023-03-01T02:15:54;0.80;99.90
5870;DHT22;2961;47.702;9.410;2023-03-01T02:18:23;0.80;99.90
5870;DHT22;2961;47.702;9.410;2023-03-01T02:21:04;0.80;99.90
5870;DHT22;2961;47.702;9.410;2023-03-01T02:23:33;0.70;99.90
5870;DHT22;2961;47.702;9.410;2023-03-01T02:26:06;0.70;99.90
5870;DHT22;2961;47.702;9.410;2023-03-01T02:28:36;0.90;99.90
5870;DHT22;2961;47.702;9.410;2023-03-01T02:31:05;0.90;99.90
5870;DHT22;2961;47.702;9.410;2023-03-01T02:33:51;0.90;99.90
5870;DHT22;2961;47.702;9.410;2023-03-01T02:36:21;0.90;99.90
5870;DHT22;2961;47.702;9.410;2023-03-01T02:38:52;0.90;99.90
5870;DHT22;2961;47.702;9.410;2023-03-01T02:41:20;0.90;99.90
5870;DHT22;2961;47.702;9.410;2023-03-01T02:43:49;0.90;99.90
5870;DHT22;2961;47.702;9.410;2023-03-01T02:46:18;0.90;99.90
5870;DHT22;2961;47.702;9.410;2023-03-01T02:48:47;0.90;99.90
5870;DHT22;2961;47.702;9.410;2023-03-01T02:51:25;0.90;99.90
5870;DHT22;2961;47.702;9.410;2023-03-01T02:54:03;0.90;99.90
5870;DHT22;2961;47.702;9.410;2023-03-01T02:56:34;0.90;99.90
5870;DHT22;2961;47.702;9.410;2023-03-01T02:59:03;0.90;99.90
5870;DHT22;2961;47.702;9.410;2023-03-01T03:01:30;0.90;99.90
5870;DHT22;2961;47.702;9.410;2023-03-01T03:04:04;0.90;99.90
5870;DHT22;2961;47.702;9.410;2023-03-01T03:06:31;0.90;99.90
5870;DHT22;2961;47.702;9.410;2023-03-01T03:08:57;0.90;99.90
5870;DHT22;2961;47.702;9.410;2023-03-01T03:11:24;0.90;99.90
5870;DHT22;2961;47.702;9.410;2023-03-01T03:13:51;0.90;99.90
5870;DHT22;2961;47.702;9.410;2023-03-01T03:16:20;0.80;99.90
5870;DHT22;2961;47.702;9.410;2023-03-01T03:18:47;0.80;99.90
5870;DHT22;2961;47.702;9.410;2023-03-01T03:21:14;0.80;99.90
5870;DHT22;2961;47.702;9.410;2023-03-01T03:23:41;0.80;99.90
5870;DHT22;2961;47.702;9.410;2023-03-01T03:26:08;0.80;99.90
5870;DHT22;2961;47.702;9.410;2023-03-01T03:28:40;0.80;99.90
5870;DHT22;2961;47.702;9.410;2023-03-01T03:31:07;0.80;99.90
5870;DHT22;2961;47.702;9.410;2023-03-01T03:33:36;0.80;99.90
5870;DHT22;2961;47.702;9.410;2023-03-01T03:36:03;0.70;99.90
5870;DHT22;2961;47.702;9.410;2023-03-01T03:38:30;0.80;99.90
5870;DHT22;2961;47.702;9.410;2023-03-01T03:41:01;0.70;99.90
5870;DHT22;2961;47.702;9.410;2023-03-01T03:43:30;0.70;99.90
5870;DHT22;2961;47.702;9.410;2023-03-01T03:45:58;0.70;99.90
5870;DHT22;2961;47.702;9.410;2023-03-01T03:48:25;0.70;99.90
5870;DHT22;2961;47.702;9.410;2023-03-01T03:50:55;0.70;99.90
5870;DHT22;2961;47.702;9.410;2023-03-01T03:53:24;0.70;99.90
5870;DHT22;2961;47.702;9.410;2023-03-01T03:55:51;0.70;99.90
5870;DHT22;2961;47.702;9.410;2023-03-01T03:58:19;0.70;99.90
5870;DHT22;2961;47.702;9.410;2023-03-01T04:00:48;0.80;99.90
5870;DHT22;2961;47.702;9.410;2023-03-01T04:03:16;0.80;99.90
5870;DHT22;2961;47.702;9.410;2023-03-01T04:05:46;0.70;99.90
5870;DHT22;2961;47.702;9.410;2023-03-01T04:08:14;0.60;99.90
5870;DHT22;2961;47.702;9.410;2023-03-01T04:10:43;0.60;99.90
5870;DHT22;2961;47.702;9.410;2023-03-01T04:13:11;0.60;99.90
5870;DHT22;2961;47.702;9.410;2023-03-01T04:15:39;0.60;99.90
5870;DHT22;2961;47.702;9.410;2023-03-01T04:18:06;0.60;99.90
5870;DHT22;2961;47.702;9.410;2023-03-01T04:20:35;0.60;99.90
5870;DHT22;2961;47.702;9.410;2023-03-01T04:23:04;0.70;99.90
5870;DHT22;2961;47.702;9.410;2023-03-01T04:25:38;0.60;99.90
5870;DHT22;2961;47.702;9.410;2023-03-01T04:28:05;0.70;99.90
5870;DHT22;2961;47.702;9.410;2023-03-01T04:30:32;0.60;99.90
5870;DHT22;2961;47.702;9.410;2023-03-01T04:33:02;0.60;99.90
5870;DHT22;2961;47.702;9.410;2023-03-01T04:35:29;0.60;99.90
5870;DHT22;2961;47.702;9.410;2023-03-01T04:37:56;0.60;99.90
5870;DHT22;2961;47.702;9.410;2023-03-01T04:40:23;0.70;99.90
5870;DHT22;2961;47.702;9.410;2023-03-01T04:42:51;0.60;99.90
5870;DHT22;2961;47.702;9.410;2023-03-01T04:45:18;0.60;99.90
5870;DHT22;2961;47.702;9.410;2023-03-01T04:47:46;0.60;99.90
5870;DHT22;2961;47.702;9.410;2023-03-01T04:50:14;0.70;99.90
5870;DHT22;2961;47.702;9.410;2023-03-01T04:52:42;0.70;99.90
5870;DHT22;2961;47.702;9.410;2023-03-01T04:55:10;0.70;99.90
5870;DHT22;2961;47.702;9.410;2023-03-01T04:57:37;0.70;99.90
5870;DHT22;2961;47.702;9.410;2023-03-01T05:00:09;0.70;99.90
5870;DHT22;2961;47.702;9.410;2023-03-01T05:02:51;0.70;99.90
5870;DHT22;2961;47.702;9.410;2023-03-01T05:05:25;0.70;99.90
5870;DHT22;2961;47.702;9.410;2023-03-01T05:07:53;0.70;99.90
5870;DHT22;2961;47.702;9.410;2023-03-01T05:10:21;0.70;99.90
5870;DHT22;2961;47.702;9.410;2023-03-01T05:12:48;0.70;99.90
5870;DHT22;2961;47.702;9.410;2023-03-01T05:15:16;0.70;99.90
5870;DHT22;2961;47.702;9.410;2023-03-01T05:17:43;0.70;99.90
5870;DHT22;2961;47.702;9.410;2023-03-01T05:20:11;0.80;99.90
5870;DHT22;2961;47.702;9.410;2023-03-01T05:22:37;0.80;99.90
5870;DHT22;2961;47.702;9.410;2023-03-01T05:25:05;0.80;99.90
5870;DHT22;2961;47.702;9.410;2023-03-01T05:27:33;0.80;99.90
5870;DHT22;2961;47.702;9.410;2023-03-01T05:30:00;0.80;99.90
5870;DHT22;2961;47.702;9.410;2023-03-01T05:32:41;0.90;99.90
5870;DHT22;2961;47.702;9.410;2023-03-01T05:35:09;0.90;99.90
5870;DHT22;2961;47.702;9.410;2023-03-01T05:37:39;0.80;99.90
5870;DHT22;2961;47.702;9.410;2023-03-01T05:40:06;0.80;99.90
5870;DHT22;2961;47.702;9.410;2023-03-01T05:42:43;0.80;99.90
5870;DHT22;2961;47.702;9.410;2023-03-01T05:45:11;0.80;99.90
5870;DHT22;2961;47.702;9.410;2023-03-01T05:47:41;0.80;99.90
5870;DHT22;2961;47.702;9.410;2023-03-01T05:50:11;0.80;99.90
5870;DHT22;2961;47.702;9.410;2023-03-01T05:52:38;0.80;99.90
5870;DHT22;2961;47.702;9.410;2023-03-01T05:55:05;0.90;99.90
5870;DHT22;2961;47.702;9.410;2023-03-01T05:57:32;0.90;99.90
5870;DHT22;2961;47.702;9.410;2023-03-01T05:59:59;0.90;99.90
5870;DHT22;2961;47.702;9.410;2023-03-01T06:02:26;0.90;99.90
5870;DHT22;2961;47.702;9.410;2023-03-01T06:04:56;0.90;99.90
5870;DHT22;2961;47.702;9.410;2023-03-01T06:07:23;0.90;99.90
5870;DHT22;2961;47.702;9.410;2023-03-01T06:09:49;0.90;99.90
5870;DHT22;2961;47.702;9.410;2023-03-01T06:12:16;0.90;99.90
5870;DHT22;2961;47.702;9.410;2023-03-01T06:14:45;0.90;99.90
5870;DHT22;2961;47.702;9.410;2023-03-01T06:17:12;0.90;99.90
5870;DHT22;2961;47.702;9.410;2023-03-01T06:19:38;0.90;99.90
5870;DHT22;2961;47.702;9.410;2023-03-01T06:22:07;0.90;99.90
5870;DHT22;2961;47.702;9.410;2023-03-01T06:24:40;0.90;99.90
5870;DHT22;2961;47.702;9.410;2023-03-01T06:27:06;0.90;99.90
5870;DHT22;2961;47.702;9.410;2023-03-01T06:29:33;0.90;99.90
5870;DHT22;2961;47.702;9.410;2023-03-01T06:32:00;0.90;99.90
5870;DHT22;2961;47.702;9.410;2023-03-01T06:34:27;0.90;99.90
5870;DHT22;2961;47.702;9.410;2023-03-01T06:36:54;0.90;99.90
5870;DHT22;2961;47.702;9.410;2023-03-01T06:39:22;1.00;99.90
5870;DHT22;2961;47.702;9.410;2023-03-01T06:41:48;1.00;99.90
5870;DHT22;2961;47.702;9.410;2023-03-01T06:44:15;0.90;99.90
5870;DHT22;2961;47.702;9.410;2023-03-01T06:46:42;0.90;99.90
5870;DHT22;2961;47.702;9.410;2023-03-01T06:49:09;0.90;99.90
5870;DHT22;2961;47.702;9.410;2023-03-01T06:51:38;0.90;99.90
5870;DHT22;2961;47.702;9.410;2023-03-01T06:54:05;0.90;99.90
5870;DHT22;2961;47.702;9.410;2023-03-01T06:56:34;1.00;99.90
5870;DHT22;2961;47.702;9.410;2023-03-01T06:59:00;1.00;99.90
5870;DHT22;2961;47.702;9.410;2023-03-01T07:01:28;1.00;99.90
5870;DHT22;2961;47.702;9.410;2023-03-01T07:03:54;0.90;99.90
5870;DHT22;2961;47.702;9.410;2023-03-01T07:06:22;1.00;99.90
5870;DHT22;2961;47.702;9.410;2023-03-01T07:08:48;1.00;99.90
5870;DHT22;2961;47.702;9.410;2023-03-01T07:11:15;0.90;99.90
5870;DHT22;2961;47.702;9.410;2023-03-01T07:13:43;1.00;99.90
5870;DHT22;2961;47.702;9.410;2023-03-01T07:16:10;1.00;99.90
5870;DHT22;2961;47.702;9.410;2023-03-01T07:18:37;1.00;99.90
5870;DHT22;2961;47.702;9.410;2023-03-01T07:21:05;1.00;99.90
5870;DHT22;2961;47.702;9.410;2023-03-01T07:23:32;1.00;99.90
5870;DHT22;2961;47.702;9.410;2023-03-01T07:25:59;1.00;99.90
5870;DHT22;2961;47.702;9.410;2023-03-01T07:28:26;1.00;99.90
5870;DHT22;2961;47.702;9.410;2023-03-01T07:30:54;1.00;99.90
5870;DHT22;2961;47.702;9.410;2023-03-01T07:33:21;1.00;99.90
5870;DHT22;2961;47.702;9.410;2023-03-01T07:35:48;1.00;99.90
5870;DHT22;2961;47.702;9.410;2023-03-01T07:38:16;1.00;99.90
5870;DHT22;2961;47.702;9.410;2023-03-01T07:40:43;1.00;99.90
5870;DHT22;2961;47.702;9.410;2023-03-01T07:43:10;1.00;99.90
5870;DHT22;2961;47.702;9.410;2023-03-01T07:45:36;1.00;99.90
5870;DHT22;2961;47.702;9.410;2023-03-01T07:48:05;1.00;99.90
5870;DHT22;2961;47.702;9.410;2023-03-01T07:50:31;1.00;99.90
5870;DHT22;2961;47.702;9.410;2023-03-01T07:52:58;1.00;99.90
5870;DHT22;2961;47.702;9.410;2023-03-01T07:55:25;1.00;99.90
5870;DHT22;2961;47.702;9.410;2023-03-01T07:57:52;1.00;99.90
5870;DHT22;2961;47.702;9.410;2023-03-01T08:00:19;1.00;99.90
5870;DHT22;2961;47.702;9.410;2023-03-01T08:02:46;1.10;99.90
5870;DHT22;2961;47.702;9.410;2023-03-01T08:05:14;1.10;99.90
5870;DHT22;2961;47.702;9.410;2023-03-01T08:07:41;1.10;99.90
5870;DHT22;2961;47.702;9.410;2023-03-01T08:10:09;1.10;99.90
5870;DHT22;2961;47.702;9.410;2023-03-01T08:12:36;1.10;99.90
5870;DHT22;2961;47.702;9.410;2023-03-01T08:15:03;1.20;99.90
5870;DHT22;2961;47.702;9.410;2023-03-01T08:17:30;1.20;99.90
5870;DHT22;2961;47.702;9.410;2023-03-01T08:19:57;1.30;99.90
5870;DHT22;2961;47.702;9.410;2023-03-01T08:22:25;1.30;99.90
5870;DHT22;2961;47.702;9.410;2023-03-01T08:24:52;1.30;99.90
5870;DHT22;2961;47.702;9.410;2023-03-01T08:27:21;1.30;99.90
5870;DHT22;2961;47.702;9.410;2023-03-01T08:29:48;1.30;99.90
5870;DHT22;2961;47.702;9.410;2023-03-01T08:32:14;1.30;99.90
5870;DHT22;2961;47.702;9.410;2023-03-01T08:34:41;1.30;99.90
5870;DHT22;2961;47.702;9.410;2023-03-01T08:37:08;1.30;99.90
5870;DHT22;2961;47.702;9.410;2023-03-01T08:39:36;1.30;99.90
5870;DHT22;2961;47.702;9.410;2023-03-01T08:42:03;1.30;99.90
5870;DHT22;2961;47.702;9.410;2023-03-01T08:44:30;1.40;99.90
5870;DHT22;2961;47.702;9.410;2023-03-01T08:46:57;1.40;99.90
5870;DHT22;2961;47.702;9.410;2023-03-01T08:49:23;1.30;99.90
5870;DHT22;2961;47.702;9.410;2023-03-01T08:51:50;1.30;99.90
5870;DHT22;2961;47.702;9.410;2023-03-01T08:54:18;1.40;99.90
5870;DHT22;2961;47.702;9.410;2023-03-01T08:56:48;1.40;99.90
5870;DHT22;2961;47.702;9.410;2023-03-01T08:59:16;1.40;99.90
5870;DHT22;2961;47.702;9.410;2023-03-01T09:01:43;1.40;99.90
5870;DHT22;2961;47.702;9.410;2023-03-01T09:04:11;1.40;99.90
5870;DHT22;2961;47.702;9.410;2023-03-01T09:06:38;1.50;99.90
5870;DHT22;2961;47.702;9.410;2023-03-01T09:09:05;1.50;99.90
5870;DHT22;2961;47.702;9.410;2023-03-01T09:11:36;1.50;99.90
5870;DHT22;2961;47.702;9.410;2023-03-01T09:14:05;1.50;99.90
5870;DHT22;2961;47.702;9.410;2023-03-01T09:16:32;1.60;99.90
5870;DHT22;2961;47.702;9.410;2023-03-01T09:19:02;1.60;99.90
5870;DHT22;2961;47.702;9.410;2023-03-01T09:21:29;1.60;99.90
5870;DHT22;2961;47.702;9.410;2023-03-01T09:23:57;1.60;99.90
5870;DHT22;2961;47.702;9.410;2023-03-01T09:26:24;1.60;99.90
5870;DHT22;2961;47.702;9.410;2023-03-01T09:28:53;1.50;99.90
5870;DHT22;2961;47.702;9.410;2023-03-01T09:31:23;1.50;99.90
5870;DHT22;2961;47.702;9.410;2023-03-01T09:33:51;1.40;99.90
5870;DHT22;2961;47.702;9.410;2023-03-01T09:36:20;1.40;99.90
5870;DHT22;2961;47.702;9.410;2023-03-01T09:38:47;1.40;99.90
5870;DHT22;2961;47.702;9.410;2023-03-01T09:41:26;1.40;99.90
5870;DHT22;2961;47.702;9.410;2023-03-01T09:44:01;1.50;99.90
5870;DHT22;2961;47.702;9.410;2023-03-01T09:46:35;1.50;99.90
5870;DHT22;2961;47.702;9.410;2023-03-01T09:49:09;1.50;99.90
5870;DHT22;2961;47.702;9.410;2023-03-01T09:51:37;1.50;99.90
5870;DHT22;2961;47.702;9.410;2023-03-01T09:54:05;1.50;99.90
5870;DHT22;2961;47.702;9.410;2023-03-01T09:56:37;1.60;99.90
5870;DHT22;2961;47.702;9.410;2023-03-01T09:59:15;1.60;99.90
5870;DHT22;2961;47.702;9.410;2023-03-01T10:01:50;1.60;99.90
5870;DHT22;2961;47.702;9.410;2023-03-01T10:04:28;1.60;99.90
5870;DHT22;2961;47.702;9.410;2023-03-01T10:07:07;1.70;99.90
5870;DHT22;2961;47.702;9.410;2023-03-01T10:09:40;1.70;99.90
5870;DHT22;2961;47.702;9.410;2023-03-01T10:12:10;1.70;99.90
5870;DHT22;2961;47.702;9.410;2023-03-01T10:14:40;1.70;99.90
5870;DHT22;2961;47.702;9.410;2023-03-01T10:17:20;1.80;99.90
5870;DHT22;2961;47.702;9.410;2023-03-01T10:19:50;1.90;99.90
5870;DHT22;2961;47.702;9.410;2023-03-01T10:22:19;1.90;99.90
5870;DHT22;2961;47.702;9.410;2023-03-01T10:24:59;1.80;99.90
5870;DHT22;2961;47.702;9.410;2023-03-01T10:27:35;1.70;99.90
5870;DHT22;2961;47.702;9.410;2023-03-01T10:30:09;1.70;99.90
5870;DHT22;2961;47.702;9.410;2023-03-01T10:32:43;1.70;99.90
5870;DHT22;2961;47.702;9.410;2023-03-01T10:35:19;1.70;99.90
5870;DHT22;2961;47.702;9.410;2023-03-01T10:37:57;1.80;99.90
5870;DHT22;2961;47.702;9.410;2023-03-01T10:40:24;1.70;99.90
5870;DHT22;2961;47.702;9.410;2023-03-01T10:42:51;1.70;99.90
5870;DHT22;2961;47.702;9.410;2023-03-01T10:45:30;1.60;99.90
5870;DHT22;2961;47.702;9.410;2023-03-01T10:48:11;1.60;99.90
5870;DHT22;2961;47.702;9.410;2023-03-01T10:50:39;1.60;99.90
5870;DHT22;2961;47.702;9.410;2023-03-01T10:53:20;1.70;99.90
5870;DHT22;2961;47.702;9.410;2023-03-01T10:55:57;1.70;99.90
5870;DHT22;2961;47.702;9.410;2023-03-01T10:58:24;1.70;99.90
5870;DHT22;2961;47.702;9.410;2023-03-01T11:00:53;1.70;99.90
5870;DHT22;2961;47.702;9.410;2023-03-01T11:03:24;1.70;99.90
5870;DHT22;2961;47.702;9.410;2023-03-01T11:05:57;1.70;99.90
5870;DHT22;2961;47.702;9.410;2023-03-01T11:08:36;1.80;99.90
5870;DHT22;2961;47.702;9.410;2023-03-01T11:11:15;2.00;99.90
5870;DHT22;2961;47.702;9.410;2023-03-01T11:13:50;2.00;99.90
5870;DHT22;2961;47.702;9.410;2023-03-01T11:16:24;2.00;99.90
5870;DHT22;2961;47.702;9.410;2023-03-01T11:19:17;1.90;99.90
5870;DHT22;2961;47.702;9.410;2023-03-01T11:21:53;2.00;99.90
5870;DHT22;2961;47.702;9.410;2023-03-01T11:24:26;2.10;99.90
5870;DHT22;2961;47.702;9.410;2023-03-01T11:26:54;2.10;99.90
5870;DHT22;2961;47.702;9.410;2023-03-01T11:29:27;2.10;99.90
5870;DHT22;2961;47.702;9.410;2023-03-01T11:31:59;2.00;99.90
5870;DHT22;2961;47.702;9.410;2023-03-01T11:34:38;2.00;99.90
5870;DHT22;2961;47.702;9.410;2023-03-01T11:37:13;2.00;99.90
5870;DHT22;2961;47.702;9.410;2023-03-01T11:39:46;2.00;99.90
5870;DHT22;2961;47.702;9.410;2023-03-01T11:42:19;1.90;99.90
5870;DHT22;2961;47.702;9.410;2023-03-01T11:44:49;1.90;99.90
5870;DHT22;2961;47.702;9.410;2023-03-01T11:47:27;1.90;99.90
5870;DHT22;2961;47.702;9.410;2023-03-01T11:50:11;1.90;99.90
5870;DHT22;2961;47.702;9.410;2023-03-01T11:52:48;1.90;99.90
5870;DHT22;2961;47.702;9.410;2023-03-01T11:55:36;2.00;99.90
5870;DHT22;2961;47.702;9.410;2023-03-01T11:58:17;2.00;99.90
5870;DHT22;2961;47.702;9.410;2023-03-01T12:01:02;2.00;99.90
5870;DHT22;2961;47.702;9.410;2023-03-01T12:03:47;2.00;99.90
5870;DHT22;2961;47.702;9.410;2023-03-01T12:06:36;2.10;99.90
5870;DHT22;2961;47.702;9.410;2023-03-01T12:09:21;2.20;99.90
5870;DHT22;2961;47.702;9.410;2023-03-01T12:14:51;2.20;99.90
5870;DHT22;2961;47.702;9.410;2023-03-01T12:17:40;2.30;99.90
5870;DHT22;2961;47.702;9.410;2023-03-01T12:20:22;2.30;99.90
5870;DHT22;2961;47.702;9.410;2023-03-01T12:23:09;2.20;99.90
5870;DHT22;2961;47.702;9.410;2023-03-01T12:25:43;2.20;99.90
5870;DHT22;2961;47.702;9.410;2023-03-01T12:28:38;2.30;99.90
5870;DHT22;2961;47.702;9.410;2023-03-01T12:34:42;2.30;99.90
5870;DHT22;2961;47.702;9.410;2023-03-01T12:37:25;2.30;99.90
5870;DHT22;2961;47.702;9.410;2023-03-01T12:40:13;2.20;99.90
5870;DHT22;2961;47.702;9.410;2023-03-01T12:42:48;2.30;99.90
5870;DHT22;2961;47.702;9.410;2023-03-01T12:45:33;2.30;99.90
5870;DHT22;2961;47.702;9.410;2023-03-01T12:48:18;2.20;99.90
5870;DHT22;2961;47.702;9.410;2023-03-01T12:50:52;2.30;99.90
5870;DHT22;2961;47.702;9.410;2023-03-01T12:53:23;2.20;99.90
5870;DHT22;2961;47.702;9.410;2023-03-01T12:55:53;2.20;99.90
5870;DHT22;2961;47.702;9.410;2023-03-01T12:58:24;2.20;99.90
5870;DHT22;2961;47.702;9.410;2023-03-01T13:01:03;2.20;99.90
5870;DHT22;2961;47.702;9.410;2023-03-01T13:03:38;2.30;99.90
5870;DHT22;2961;47.702;9.410;2023-03-01T13:06:15;2.40;99.90
5870;DHT22;2961;47.702;9.410;2023-03-01T13:08:49;2.50;99.90
5870;DHT22;2961;47.702;9.410;2023-03-01T13:11:21;2.60;99.90
5870;DHT22;2961;47.702;9.410;2023-03-01T13:13:49;2.70;99.90
5870;DHT22;2961;47.702;9.410;2023-03-01T13:16:27;2.70;99.90
5870;DHT22;2961;47.702;9.410;2023-03-01T13:19:12;2.80;99.90
5870;DHT22;2961;47.702;9.410;2023-03-01T13:21:40;2.80;99.90
5870;DHT22;2961;47.702;9.410;2023-03-01T13:24:28;2.70;99.90
5870;DHT22;2961;47.702;9.410;2023-03-01T13:27:20;2.70;99.90
5870;DHT22;2961;47.702;9.410;2023-03-01T13:29:51;2.70;99.90
5870;DHT22;2961;47.702;9.410;2023-03-01T13:32:22;2.80;99.90
5870;DHT22;2961;47.702;9.410;2023-03-01T13:34:57;2.80;99.90
5870;DHT22;2961;47.702;9.410;2023-03-01T13:37:32;2.80;99.90
5870;DHT22;2961;47.702;9.410;2023-03-01T13:40:02;2.90;99.90
5870;DHT22;2961;47.702;9.410;2023-03-01T13:42:41;2.90;99.90
5870;DHT22;2961;47.702;9.410;2023-03-01T13:45:24;2.90;99.90
5870;DHT22;2961;47.702;9.410;2023-03-01T13:47:57;2.90;99.90
5870;DHT22;2961;47.702;9.410;2023-03-01T13:50:27;2.80;99.90
5870;DHT22;2961;47.702;9.410;2023-03-01T13:52:57;2.90;99.90
5870;DHT22;2961;47.702;9.410;2023-03-01T13:55:30;3.00;99.90
5870;DHT22;2961;47.702;9.410;2023-03-01T13:58:04;2.90;99.90
5870;DHT22;2961;47.702;9.410;2023-03-01T14:00:35;2.90;99.90
5870;DHT22;2961;47.702;9.410;2023-03-01T14:03:04;2.80;99.90
5870;DHT22;2961;47.702;9.410;2023-03-01T14:05:33;2.80;99.90
5870;DHT22;2961;47.702;9.410;2023-03-01T14:08:01;2.80;99.90
5870;DHT22;2961;47.702;9.410;2023-03-01T14:10:35;2.80;99.90
5870;DHT22;2961;47.702;9.410;2023-03-01T14:13:18;2.70;99.90
5870;DHT22;2961;47.702;9.410;2023-03-01T14:15:54;2.70;99.90
5870;DHT22;2961;47.702;9.410;2023-03-01T14:18:29;2.70;99.90
5870;DHT22;2961;47.702;9.410;2023-03-01T14:21:01;2.70;99.90
5870;DHT22;2961;47.702;9.410;2023-03-01T14:23:33;2.80;99.90
5870;DHT22;2961;47.702;9.410;2023-03-01T14:26:01;2.80;99.90
5870;DHT22;2961;47.702;9.410;2023-03-01T14:28:31;2.90;99.90
5870;DHT22;2961;47.702;9.410;2023-03-01T14:31:00;2.90;99.90
5870;DHT22;2961;47.702;9.410;2023-03-01T14:33:29;2.90;99.90
5870;DHT22;2961;47.702;9.410;2023-03-01T14:36:00;2.90;99.90
5870;DHT22;2961;47.702;9.410;2023-03-01T14:38:32;2.80;99.90
5870;DHT22;2961;47.702;9.410;2023-03-01T14:41:02;2.80;99.90
5870;DHT22;2961;47.702;9.410;2023-03-01T14:43:31;2.70;99.90
5870;DHT22;2961;47.702;9.410;2023-03-01T14:45:59;2.70;99.90
5870;DHT22;2961;47.702;9.410;2023-03-01T14:48:27;2.80;99.90
5870;DHT22;2961;47.702;9.410;2023-03-01T14:50:55;2.80;99.90
5870;DHT22;2961;47.702;9.410;2023-03-01T14:53:24;2.80;99.90
5870;DHT22;2961;47.702;9.410;2023-03-01T14:55:53;2.80;99.90
5870;DHT22;2961;47.702;9.410;2023-03-01T14:58:22;2.80;99.90
5870;DHT22;2961;47.702;9.410;2023-03-01T15:00:53;2.80;99.90
5870;DHT22;2961;47.702;9.410;2023-03-01T15:03:26;2.70;99.90
5870;DHT22;2961;47.702;9.410;2023-03-01T15:05:54;2.60;99.90
5870;DHT22;2961;47.702;9.410;2023-03-01T15:08:23;2.70;99.90
5870;DHT22;2961;47.702;9.410;2023-03-01T15:10:59;2.60;99.90
5870;DHT22;2961;47.702;9.410;2023-03-01T15:13:28;2.60;99.90
5870;DHT22;2961;47.702;9.410;2023-03-01T15:16:06;2.50;99.90
5870;DHT22;2961;47.702;9.410;2023-03-01T15:18:34;2.50;99.90
5870;DHT22;2961;47.702;9.410;2023-03-01T15:21:09;2.50;99.90
5870;DHT22;2961;47.702;9.410;2023-03-01T15:23:40;2.40;99.90
5870;DHT22;2961;47.702;9.410;2023-03-01T15:26:22;2.40;99.90
5870;DHT22;2961;47.702;9.410;2023-03-01T15:28:51;2.40;99.90
5870;DHT22;2961;47.702;9.410;2023-03-01T15:31:22;2.30;99.90
5870;DHT22;2961;47.702;9.410;2023-03-01T15:33:49;2.30;99.90
5870;DHT22;2961;47.702;9.410;2023-03-01T15:36:40;2.30;99.90
5870;DHT22;2961;47.702;9.410;2023-03-01T15:39:33;2.40;99.90
5870;DHT22;2961;47.702;9.410;2023-03-01T15:42:03;2.40;99.90
5870;DHT22;2961;47.702;9.410;2023-03-01T15:44:32;2.50;99.90
5870;DHT22;2961;47.702;9.410;2023-03-01T15:47:00;2.50;99.90
5870;DHT22;2961;47.702;9.410;2023-03-01T15:49:35;2.50;99.90
5870;DHT22;2961;47.702;9.410;2023-03-01T15:52:04;2.50;99.90
5870;DHT22;2961;47.702;9.410;2023-03-01T15:54:32;2.40;99.90
5870;DHT22;2961;47.702;9.410;2023-03-01T15:56:59;2.30;99.90
5870;DHT22;2961;47.702;9.410;2023-03-01T15:59:26;2.30;99.90
5870;DHT22;2961;47.702;9.410;2023-03-01T16:01:53;2.30;99.90
5870;DHT22;2961;47.702;9.410;2023-03-01T16:04:21;2.20;99.90
5870;DHT22;2961;47.702;9.410;2023-03-01T16:06:49;2.10;99.90
5870;DHT22;2961;47.702;9.410;2023-03-01T16:09:20;2.10;99.90
5870;DHT22;2961;47.702;9.410;2023-03-01T16:11:47;2.00;99.90
5870;DHT22;2961;47.702;9.410;2023-03-01T16:14:14;1.90;99.90
5870;DHT22;2961;47.702;9.410;2023-03-01T16:16:41;1.80;99.90
5870;DHT22;2961;47.702;9.410;2023-03-01T16:19:08;1.90;99.90
5870;DHT22;2961;47.702;9.410;2023-03-01T16:21:37;1.80;99.90
5870;DHT22;2961;47.702;9.410;2023-03-01T16:24:05;1.80;99.90
5870;DHT22;2961;47.702;9.410;2023-03-01T16:26:32;1.80;99.90
5870;DHT22;2961;47.702;9.410;2023-03-01T16:28:58;1.60;99.90
5870;DHT22;2961;47.702;9.410;2023-03-01T16:31:25;1.60;99.90
5870;DHT22;2961;47.702;9.410;2023-03-01T16:33:53;1.60;99.90
5870;DHT22;2961;47.702;9.410;2023-03-01T16:36:21;1.60;99.90
5870;DHT22;2961;47.702;9.410;2023-03-01T16:38:51;1.50;99.90
5870;DHT22;2961;47.702;9.410;2023-03-01T16:41:20;1.50;99.90
5870;DHT22;2961;47.702;9.410;2023-03-01T16:43:48;1.40;99.90